This is the latest recevied weather packets stored in our database for station/object N4AN. If no packets are shown the sender has not sent any weather packets the latest 10 day(s).
| Time | Temp. | Humidity | Pressure | Rain* | Wind** | Luminosity | Snow |
|---|---|---|---|---|---|---|---|
| 1787869351 | 31.67° C | 65% | 1009.6 hPa | 0 mm | - | - | - |
| 1787869049 | 32.22° C | 65% | 1009.6 hPa | 0 mm | - | - | - |
| 1787868748 | 32.22° C | 64% | 1009.6 hPa | 0 mm | - | - | - |
| 1787868446 | 32.22° C | 64% | 1009.7 hPa | 0 mm | - | - | - |
| 1787868142 | 32.78° C | 63% | 1009.7 hPa | 0 mm | - | - | - |
| 1787867838 | 32.78° C | 62% | 1009.8 hPa | 0 mm | - | - | - |
| 1787867537 | 32.78° C | 61% | 1010 hPa | 0 mm | - | - | - |
| 1787867237 | 33.33° C | 60% | 1010.2 hPa | 0 mm | - | - | - |
| 1787866936 | 32.78° C | 61% | 1010.3 hPa | 0 mm | - | - | - |
| 1787866636 | 32.22° C | 63% | 1010.5 hPa | 0 mm | - | - | - |
| 1787866336 | 31.67° C | 66% | 1010.6 hPa | 0 mm | - | - | - |
| 1787866036 | 31.11° C | 67% | 1010.6 hPa | 0 mm | - | - | - |
| 1787865419 | 30° C | 72% | 1010.7 hPa | 0 mm | - | - | - |
| 1787865119 | 30° C | 71% | 1010.8 hPa | 0 mm | - | - | - |
| 1787864819 | 29.44° C | 72% | 1011 hPa | 0 mm | - | - | - |
| 1787864518 | 30° C | 71% | 1011 hPa | 0 mm | - | - | - |
| 1787864218 | 30° C | 70% | 1011.1 hPa | 0 mm | - | - | - |
| 1787863790 | 30.56° C | 70% | 1011 hPa | 0 mm | - | - | - |
| 1787863490 | 30.56° C | 71% | 1011.2 hPa | 0 mm | - | - | - |
| 1787863189 | 29.44° C | 72% | 1011 hPa | 0 mm | - | - | - |
| 1787862888 | 29.44° C | 73% | 1010.9 hPa | 0 mm | - | - | - |
| 1787862588 | 29.44° C | 73% | 1011.1 hPa | 0 mm | - | - | - |
| 1787862288 | 28.89° C | 73% | 1011 hPa | 0 mm | - | - | - |
| 1787861987 | 32.22° C | 64% | 1010.9 hPa | 0 mm | - | - | - |
| 1787861687 | 33.89° C | 65% | 1011.1 hPa | 0 mm | - | - | - |
* Rain latest hour (hover to see other rain measurements)
** Current wind speed in m/s (hover to see current wind gust speed)